sensor_id;sensor_type;location;lat;lon;timestamp;pressure;altitude;pressure_sealevel;temperature;humidity
46045;BME280;31781;54.094;13.428;2023-03-14T00:00:52;98939.50;;;12.61;70.96
46045;BME280;31781;54.094;13.428;2023-03-14T00:02:54;98931.59;;;12.60;70.69
46045;BME280;31781;54.094;13.428;2023-03-14T00:04:56;98937.03;;;12.55;70.98
46045;BME280;31781;54.094;13.428;2023-03-14T00:06:58;98933.72;;;12.53;70.71
46045;BME280;31781;54.094;13.428;2023-03-14T00:08:59;98925.00;;;12.51;71.04
46045;BME280;31781;54.094;13.428;2023-03-14T00:11:06;98917.06;;;12.49;71.13
46045;BME280;31781;54.094;13.428;2023-03-14T00:13:09;98912.72;;;12.48;71.11
46045;BME280;31781;54.094;13.428;2023-03-14T00:15:12;98915.97;;;12.45;70.89
46045;BME280;31781;54.094;13.428;2023-03-14T00:17:14;98909.41;;;12.41;70.85
46045;BME280;31781;54.094;13.428;2023-03-14T00:19:16;98914.88;;;12.41;70.91
46045;BME280;31781;54.094;13.428;2023-03-14T00:21:18;98923.56;;;12.38;70.79
46045;BME280;31781;54.094;13.428;2023-03-14T00:23:20;98912.66;;;12.38;70.75
46045;BME280;31781;54.094;13.428;2023-03-14T00:25:22;98921.38;;;12.35;70.93
46045;BME280;31781;54.094;13.428;2023-03-14T00:27:24;98917.53;;;12.31;71.07
46045;BME280;31781;54.094;13.428;2023-03-14T00:29:27;98921.63;;;12.29;71.15
46045;BME280;31781;54.094;13.428;2023-03-14T00:31:29;98915.34;;;12.28;70.87
46045;BME280;31781;54.094;13.428;2023-03-14T00:33:31;98904.97;;;12.25;70.87
46045;BME280;31781;54.094;13.428;2023-03-14T00:35:33;98895.41;;;12.23;70.83
46045;BME280;31781;54.094;13.428;2023-03-14T00:37:34;98885.28;;;12.18;71.65
46045;BME280;31781;54.094;13.428;2023-03-14T00:39:36;98895.63;;;12.16;71.67
46045;BME280;31781;54.094;13.428;2023-03-14T00:41:38;98888.56;;;12.15;71.26
46045;BME280;31781;54.094;13.428;2023-03-14T00:43:39;98888.81;;;12.13;71.11
46045;BME280;31781;54.094;13.428;2023-03-14T00:45:43;98895.63;;;12.11;71.39
46045;BME280;31781;54.094;13.428;2023-03-14T00:47:45;98896.94;;;12.08;71.79
46045;BME280;31781;54.094;13.428;2023-03-14T00:49:47;98903.22;;;12.04;72.21
46045;BME280;31781;54.094;13.428;2023-03-14T00:51:48;98910.81;;;12.02;72.07
46045;BME280;31781;54.094;13.428;2023-03-14T00:53:50;98915.44;;;12.01;72.32
46045;BME280;31781;54.094;13.428;2023-03-14T00:55:52;98917.63;;;11.99;72.35
46045;BME280;31781;54.094;13.428;2023-03-14T00:57:54;98908.88;;;11.97;72.17
46045;BME280;31781;54.094;13.428;2023-03-14T00:59:56;98898.25;;;11.96;72.41
46045;BME280;31781;54.094;13.428;2023-03-14T01:01:59;98904.78;;;11.95;72.03
46045;BME280;31781;54.094;13.428;2023-03-14T01:04:01;98906.13;;;11.92;72.94
46045;BME280;31781;54.094;13.428;2023-03-14T01:06:09;98884.84;;;11.89;72.54
46045;BME280;31781;54.094;13.428;2023-03-14T01:08:10;98900.38;;;11.89;72.95
46045;BME280;31781;54.094;13.428;2023-03-14T01:10:12;98918.88;;;11.87;72.75
46045;BME280;31781;54.094;13.428;2023-03-14T01:12:14;98926.50;;;11.85;72.82
46045;BME280;31781;54.094;13.428;2023-03-14T01:14:16;98925.69;;;11.84;72.95
46045;BME280;31781;54.094;13.428;2023-03-14T01:16:19;98918.88;;;11.82;73.26
46045;BME280;31781;54.094;13.428;2023-03-14T01:18:22;98924.31;;;11.82;73.09
46045;BME280;31781;54.094;13.428;2023-03-14T01:20:24;98903.84;;;11.79;73.28
46045;BME280;31781;54.094;13.428;2023-03-14T01:22:26;98915.28;;;11.76;73.69
46045;BME280;31781;54.094;13.428;2023-03-14T01:24:28;98895.38;;;11.76;73.50
46045;BME280;31781;54.094;13.428;2023-03-14T01:26:32;98885.56;;;11.75;73.78
46045;BME280;31781;54.094;13.428;2023-03-14T01:28:34;98882.28;;;11.73;74.07
46045;BME280;31781;54.094;13.428;2023-03-14T01:30:36;98876.81;;;11.73;74.36
46045;BME280;31781;54.094;13.428;2023-03-14T01:32:39;98881.44;;;11.72;73.97
46045;BME280;31781;54.094;13.428;2023-03-14T01:34:42;98876.81;;;11.73;74.06
46045;BME280;31781;54.094;13.428;2023-03-14T01:36:44;98863.72;;;11.69;74.50
46045;BME280;31781;54.094;13.428;2023-03-14T01:38:45;98854.72;;;11.69;74.16
46045;BME280;31781;54.094;13.428;2023-03-14T01:40:49;98859.09;;;11.70;74.09
46045;BME280;31781;54.094;13.428;2023-03-14T01:42:54;98853.06;;;11.68;74.71
46045;BME280;31781;54.094;13.428;2023-03-14T01:44:58;98871.06;;;11.69;74.26
46045;BME280;31781;54.094;13.428;2023-03-14T01:47:00;98863.16;;;11.67;74.14
46045;BME280;31781;54.094;13.428;2023-03-14T01:49:07;98854.16;;;11.67;74.17
46045;BME280;31781;54.094;13.428;2023-03-14T01:51:15;98857.97;;;11.66;73.88
46045;BME280;31781;54.094;13.428;2023-03-14T01:53:19;98862.59;;;11.65;74.27
46045;BME280;31781;54.094;13.428;2023-03-14T01:55:24;98871.81;;;11.64;74.20
46045;BME280;31781;54.094;13.428;2023-03-14T01:57:30;98878.38;;;11.63;74.20
46045;BME280;31781;54.094;13.428;2023-03-14T01:59:34;98872.63;;;11.60;74.46
46045;BME280;31781;54.094;13.428;2023-03-14T02:01:38;98876.16;;;11.60;74.84
46045;BME280;31781;54.094;13.428;2023-03-14T02:03:46;98884.31;;;11.60;74.20
46045;BME280;31781;54.094;13.428;2023-03-14T02:05:50;98882.13;;;11.57;74.80
46045;BME280;31781;54.094;13.428;2023-03-14T02:07:55;98895.50;;;11.59;74.54
46045;BME280;31781;54.094;13.428;2023-03-14T02:09:58;98899.28;;;11.58;74.73
46045;BME280;31781;54.094;13.428;2023-03-14T02:12:01;98895.50;;;11.59;74.74
46045;BME280;31781;54.094;13.428;2023-03-14T02:14:04;98908.84;;;11.60;74.76
46045;BME280;31781;54.094;13.428;2023-03-14T02:16:06;98904.50;;;11.59;74.88
46045;BME280;31781;54.094;13.428;2023-03-14T02:18:10;98907.22;;;11.59;74.72
46045;BME280;31781;54.094;13.428;2023-03-14T02:20:25;98903.97;;;11.62;74.18
46045;BME280;31781;54.094;13.428;2023-03-14T02:22:29;98893.06;;;11.62;74.62
46045;BME280;31781;54.094;13.428;2023-03-14T02:24:37;98891.72;;;11.65;73.89
46045;BME280;31781;54.094;13.428;2023-03-14T02:26:43;98896.34;;;11.64;74.27
46045;BME280;31781;54.094;13.428;2023-03-14T02:28:49;98893.63;;;11.64;74.23
46045;BME280;31781;54.094;13.428;2023-03-14T02:30:51;98888.16;;;11.64;74.04
46045;BME280;31781;54.094;13.428;2023-03-14T02:32:57;98881.41;;;11.67;73.71
46045;BME280;31781;54.094;13.428;2023-03-14T02:35:02;98879.50;;;11.67;73.80
46045;BME280;31781;54.094;13.428;2023-03-14T02:37:06;98878.69;;;11.67;73.96
46045;BME280;31781;54.094;13.428;2023-03-14T02:39:11;98870.50;;;11.67;73.24
46045;BME280;31781;54.094;13.428;2023-03-14T02:41:16;98862.59;;;11.65;73.14
46045;BME280;31781;54.094;13.428;2023-03-14T02:43:18;98859.84;;;11.65;73.06
46045;BME280;31781;54.094;13.428;2023-03-14T02:45:34;98850.63;;;11.66;72.97
46045;BME280;31781;54.094;13.428;2023-03-14T02:47:39;98847.59;;;11.63;73.45
46045;BME280;31781;54.094;13.428;2023-03-14T02:49:42;98845.94;;;11.62;72.99
46045;BME280;31781;54.094;13.428;2023-03-14T02:51:45;98845.94;;;11.62;73.13
46045;BME280;31781;54.094;13.428;2023-03-14T02:53:47;98850.56;;;11.61;73.18
46045;BME280;31781;54.094;13.428;2023-03-14T02:55:49;98848.13;;;11.60;72.69
46045;BME280;31781;54.094;13.428;2023-03-14T02:57:51;98841.84;;;11.59;72.90
46045;BME280;31781;54.094;13.428;2023-03-14T02:59:53;98854.63;;;11.59;72.79
46045;BME280;31781;54.094;13.428;2023-03-14T03:01:56;98838.31;;;11.59;73.12
46045;BME280;31781;54.094;13.428;2023-03-14T03:03:58;98831.19;;;11.58;73.08
46045;BME280;31781;54.094;13.428;2023-03-14T03:06:00;98828.22;;;11.59;72.75
46045;BME280;31781;54.094;13.428;2023-03-14T03:08:02;98821.13;;;11.58;72.53
46045;BME280;31781;54.094;13.428;2023-03-14T03:10:04;98812.41;;;11.56;72.60
46045;BME280;31781;54.094;13.428;2023-03-14T03:12:06;98810.50;;;11.57;72.61
46045;BME280;31781;54.094;13.428;2023-03-14T03:14:08;98808.59;;;11.57;72.57
46045;BME280;31781;54.094;13.428;2023-03-14T03:16:10;98804.25;;;11.56;72.44
46045;BME280;31781;54.094;13.428;2023-03-14T03:18:13;98815.94;;;11.57;72.37
46045;BME280;31781;54.094;13.428;2023-03-14T03:20:15;98815.38;;;11.55;72.41
46045;BME280;31781;54.094;13.428;2023-03-14T03:22:17;98809.41;;;11.53;72.43
46045;BME280;31781;54.094;13.428;2023-03-14T03:24:19;98816.16;;;11.50;72.67
46045;BME280;31781;54.094;13.428;2023-03-14T03:26:20;98817.25;;;11.49;72.73
46045;BME280;31781;54.094;13.428;2023-03-14T03:28:22;98819.41;;;11.47;72.69
46045;BME280;31781;54.094;13.428;2023-03-14T03:30:24;98822.69;;;11.49;72.78
46045;BME280;31781;54.094;13.428;2023-03-14T03:32:27;98827.59;;;11.47;72.60
46045;BME280;31781;54.094;13.428;2023-03-14T03:34:30;98829.50;;;11.47;72.37
46045;BME280;31781;54.094;13.428;2023-03-14T03:36:32;98821.59;;;11.45;72.47
46045;BME280;31781;54.094;13.428;2023-03-14T03:38:34;98823.75;;;11.43;72.20
46045;BME280;31781;54.094;13.428;2023-03-14T03:40:36;98823.75;;;11.43;71.93
46045;BME280;31781;54.094;13.428;2023-03-14T03:42:38;98824.03;;;11.42;72.10
46045;BME280;31781;54.094;13.428;2023-03-14T03:44:40;98836.81;;;11.41;72.14
46045;BME280;31781;54.094;13.428;2023-03-14T03:46:41;98823.97;;;11.37;72.51
46045;BME280;31781;54.094;13.428;2023-03-14T03:48:43;98830.50;;;11.36;72.52
46045;BME280;31781;54.094;13.428;2023-03-14T03:50:46;98831.03;;;11.33;72.27
46045;BME280;31781;54.094;13.428;2023-03-14T03:52:48;98826.66;;;11.32;72.37
46045;BME280;31781;54.094;13.428;2023-03-14T03:54:50;98826.09;;;11.30;72.49
46045;BME280;31781;54.094;13.428;2023-03-14T03:56:52;98825.53;;;11.28;72.72
46045;BME280;31781;54.094;13.428;2023-03-14T03:58:54;98827.94;;;11.24;72.83
46045;BME280;31781;54.094;13.428;2023-03-14T04:00:55;98820.88;;;11.23;72.81
46045;BME280;31781;54.094;13.428;2023-03-14T04:02:59;98837.47;;;11.21;72.32
46045;BME280;31781;54.094;13.428;2023-03-14T04:05:01;98833.38;;;11.19;72.81
46045;BME280;31781;54.094;13.428;2023-03-14T04:07:05;98836.34;;;11.17;73.01
46045;BME280;31781;54.094;13.428;2023-03-14T04:09:07;98838.75;;;11.14;73.00
46045;BME280;31781;54.094;13.428;2023-03-14T04:11:09;98831.66;;;11.13;73.12
46045;BME280;31781;54.094;13.428;2023-03-14T04:13:10;98833.84;;;11.11;73.51
46045;BME280;31781;54.094;13.428;2023-03-14T04:15:13;98831.34;;;11.09;73.37
46045;BME280;31781;54.094;13.428;2023-03-14T04:17:15;98838.16;;;11.07;73.63
46045;BME280;31781;54.094;13.428;2023-03-14T04:19:17;98842.22;;;11.04;74.46
46045;BME280;31781;54.094;13.428;2023-03-14T04:21:19;98825.06;;;11.04;74.00
46045;BME280;31781;54.094;13.428;2023-03-14T04:23:24;98837.84;;;11.03;73.82
46045;BME280;31781;54.094;13.428;2023-03-14T04:25:25;98829.94;;;11.02;74.15
46045;BME280;31781;54.094;13.428;2023-03-14T04:27:27;98818.50;;;11.00;74.50
46045;BME280;31781;54.094;13.428;2023-03-14T04:29:29;98823.34;;;10.98;74.14
46045;BME280;31781;54.094;13.428;2023-03-14T04:31:31;98833.69;;;10.96;74.62
46045;BME280;31781;54.094;13.428;2023-03-14T04:33:33;98824.72;;;10.95;74.14
46045;BME280;31781;54.094;13.428;2023-03-14T04:35:35;98824.16;;;10.93;74.84
46045;BME280;31781;54.094;13.428;2023-03-14T04:37:37;98824.41;;;10.92;75.06
46045;BME280;31781;54.094;13.428;2023-03-14T04:39:42;98829.84;;;10.92;74.63
46045;BME280;31781;54.094;13.428;2023-03-14T04:41:44;98819.22;;;10.90;74.59
46045;BME280;31781;54.094;13.428;2023-03-14T04:43:46;98796.88;;;10.88;74.75
46045;BME280;31781;54.094;13.428;2023-03-14T04:45:47;98808.03;;;10.87;74.77
46045;BME280;31781;54.094;13.428;2023-03-14T04:47:49;98800.97;;;10.86;74.68
46045;BME280;31781;54.094;13.428;2023-03-14T04:49:51;98789.25;;;10.85;74.87
46045;BME280;31781;54.094;13.428;2023-03-14T04:51:52;98790.31;;;10.84;74.74
46045;BME280;31781;54.094;13.428;2023-03-14T04:53:54;98785.94;;;10.83;74.79
46045;BME280;31781;54.094;13.428;2023-03-14T04:55:57;98771.22;;;10.79;75.86
46045;BME280;31781;54.094;13.428;2023-03-14T04:57:59;98772.03;;;10.80;75.32
46045;BME280;31781;54.094;13.428;2023-03-14T05:00:01;98773.16;;;10.79;75.45
46045;BME280;31781;54.094;13.428;2023-03-14T05:02:03;98766.88;;;10.78;75.44
46045;BME280;31781;54.094;13.428;2023-03-14T05:04:05;98761.69;;;10.77;75.62
46045;BME280;31781;54.094;13.428;2023-03-14T05:06:07;98766.06;;;10.78;75.60
46045;BME280;31781;54.094;13.428;2023-03-14T05:08:09;98756.25;;;10.77;75.71
46045;BME280;31781;54.094;13.428;2023-03-14T05:10:11;98754.59;;;10.75;75.59
46045;BME280;31781;54.094;13.428;2023-03-14T05:12:14;98761.13;;;10.74;76.21
46045;BME280;31781;54.094;13.428;2023-03-14T05:14:16;98747.78;;;10.73;76.14
46045;BME280;31781;54.094;13.428;2023-03-14T05:16:18;98741.28;;;10.74;75.99
46045;BME280;31781;54.094;13.428;2023-03-14T05:18:21;98749.44;;;10.74;76.10
46045;BME280;31781;54.094;13.428;2023-03-14T05:20:22;98743.16;;;10.73;76.41
46045;BME280;31781;54.094;13.428;2023-03-14T05:22:24;98729.56;;;10.73;76.12
46045;BME280;31781;54.094;13.428;2023-03-14T05:24:26;98737.72;;;10.73;76.22
46045;BME280;31781;54.094;13.428;2023-03-14T05:26:28;98726.84;;;10.73;76.60
46045;BME280;31781;54.094;13.428;2023-03-14T05:28:32;98733.34;;;10.72;76.65
46045;BME280;31781;54.094;13.428;2023-03-14T05:30:35;98736.09;;;10.72;76.64
46045;BME280;31781;54.094;13.428;2023-03-14T05:32:36;98733.34;;;10.72;76.77
46045;BME280;31781;54.094;13.428;2023-03-14T05:34:38;98737.97;;;10.72;76.67
46045;BME280;31781;54.094;13.428;2023-03-14T05:36:40;98734.19;;;10.73;76.55
46045;BME280;31781;54.094;13.428;2023-03-14T05:38:42;98740.44;;;10.73;76.71
46045;BME280;31781;54.094;13.428;2023-03-14T05:40:44;98731.47;;;10.73;76.91
46045;BME280;31781;54.094;13.428;2023-03-14T05:42:46;98741.53;;;10.72;77.10
46045;BME280;31781;54.094;13.428;2023-03-14T05:44:49;98735.00;;;10.73;77.10
46045;BME280;31781;54.094;13.428;2023-03-14T05:46:51;98727.91;;;10.72;77.23
46045;BME280;31781;54.094;13.428;2023-03-14T05:48:54;98723.06;;;10.74;77.05
46045;BME280;31781;54.094;13.428;2023-03-14T05:50:57;98725.78;;;10.74;77.43
46045;BME280;31781;54.094;13.428;2023-03-14T05:52:59;98732.84;;;10.75;76.83
46045;BME280;31781;54.094;13.428;2023-03-14T05:55:00;98736.13;;;10.78;77.02
46045;BME280;31781;54.094;13.428;2023-03-14T05:57:02;98727.16;;;10.77;77.30
46045;BME280;31781;54.094;13.428;2023-03-14T05:59:04;98736.13;;;10.78;77.52
46045;BME280;31781;54.094;13.428;2023-03-14T06:01:07;98735.06;;;10.79;77.22
46045;BME280;31781;54.094;13.428;2023-03-14T06:03:10;98733.97;;;10.80;76.67
46045;BME280;31781;54.094;13.428;2023-03-14T06:05:12;98726.38;;;10.82;76.69
46045;BME280;31781;54.094;13.428;2023-03-14T06:07:14;98732.66;;;10.82;76.73
46045;BME280;31781;54.094;13.428;2023-03-14T06:09:16;98731.53;;;10.83;76.92
46045;BME280;31781;54.094;13.428;2023-03-14T06:11:18;98736.19;;;10.83;76.91
46045;BME280;31781;54.094;13.428;2023-03-14T06:13:20;98731.53;;;10.83;77.02
46045;BME280;31781;54.094;13.428;2023-03-14T06:15:22;98735.91;;;10.84;77.11
46045;BME280;31781;54.094;13.428;2023-03-14T06:17:26;98732.13;;;10.85;76.98
46045;BME280;31781;54.094;13.428;2023-03-14T06:19:28;98735.66;;;10.86;76.58
46045;BME280;31781;54.094;13.428;2023-03-14T06:21:29;98735.66;;;10.86;77.02
46045;BME280;31781;54.094;13.428;2023-03-14T06:23:31;98738.09;;;10.87;77.12
46045;BME280;31781;54.094;13.428;2023-03-14T06:25:34;98732.41;;;10.89;76.95
46045;BME280;31781;54.094;13.428;2023-03-14T06:27:36;98727.81;;;10.89;76.63
46045;BME280;31781;54.094;13.428;2023-03-14T06:29:37;98729.41;;;10.90;76.66
46045;BME280;31781;54.094;13.428;2023-03-14T06:31:39;98740.88;;;10.92;76.21
46045;BME280;31781;54.094;13.428;2023-03-14T06:33:42;98724.81;;;10.91;76.50
46045;BME280;31781;54.094;13.428;2023-03-14T06:35:44;98731.66;;;10.93;76.38
46045;BME280;31781;54.094;13.428;2023-03-14T06:37:49;98727.81;;;10.94;76.14
46045;BME280;31781;54.094;13.428;2023-03-14T06:39:51;98722.38;;;10.94;76.26
46045;BME280;31781;54.094;13.428;2023-03-14T06:41:52;98710.44;;;10.95;76.39
46045;BME280;31781;54.094;13.428;2023-03-14T06:43:54;98724.59;;;10.97;76.26
46045;BME280;31781;54.094;13.428;2023-03-14T06:45:57;98721.59;;;10.99;76.03
46045;BME280;31781;54.094;13.428;2023-03-14T06:47:58;98731.41;;;11.00;76.03
46045;BME280;31781;54.094;13.428;2023-03-14T06:50:02;98718.63;;;11.00;75.98
46045;BME280;31781;54.094;13.428;2023-03-14T06:52:03;98720.25;;;11.01;75.85
46045;BME280;31781;54.094;13.428;2023-03-14T06:54:05;98721.91;;;11.02;76.32
46045;BME280;31781;54.094;13.428;2023-03-14T06:56:07;98708.31;;;11.02;75.85
46045;BME280;31781;54.094;13.428;2023-03-14T06:58:09;98721.38;;;11.05;75.73
46045;BME280;31781;54.094;13.428;2023-03-14T07:00:12;98711.59;;;11.04;75.59
46045;BME280;31781;54.094;13.428;2023-03-14T07:02:14;98712.97;;;11.07;75.24
46045;BME280;31781;54.094;13.428;2023-03-14T07:04:17;98717.34;;;11.08;75.38
46045;BME280;31781;54.094;13.428;2023-03-14T07:06:20;98707.28;;;11.08;75.22
46045;BME280;31781;54.094;13.428;2023-03-14T07:08:23;98716.22;;;11.09;75.13
46045;BME280;31781;54.094;13.428;2023-03-14T07:10:24;98718.16;;;11.08;75.41
46045;BME280;31781;54.094;13.428;2023-03-14T07:12:26;98708.63;;;11.11;74.70
46045;BME280;31781;54.094;13.428;2023-03-14T07:14:28;98710.00;;;11.13;74.28
46045;BME280;31781;54.094;13.428;2023-03-14T07:16:29;98712.47;;;11.15;74.47
46045;BME280;31781;54.094;13.428;2023-03-14T07:18:31;98713.84;;;11.17;74.12
46045;BME280;31781;54.094;13.428;2023-03-14T07:20:33;98716.63;;;11.22;74.18
46045;BME280;31781;54.094;13.428;2023-03-14T07:22:36;98710.06;;;11.23;73.92
46045;BME280;31781;54.094;13.428;2023-03-14T07:24:38;98720.44;;;11.27;73.66
46045;BME280;31781;54.094;13.428;2023-03-14T07:26:40;98715.56;;;11.29;73.73
46045;BME280;31781;54.094;13.428;2023-03-14T07:28:41;98722.38;;;11.31;73.36
46045;BME280;31781;54.094;13.428;2023-03-14T07:30:43;98730.03;;;11.34;73.39
46045;BME280;31781;54.094;13.428;2023-03-14T07:32:47;98727.03;;;11.36;73.37
46045;BME280;31781;54.094;13.428;2023-03-14T07:34:49;98716.97;;;11.36;73.23
46045;BME280;31781;54.094;13.428;2023-03-14T07:36:50;98729.22;;;11.39;73.25
46045;BME280;31781;54.094;13.428;2023-03-14T07:38:54;98731.69;;;11.40;73.17
46045;BME280;31781;54.094;13.428;2023-03-14T07:40:59;98725.72;;;11.43;72.96
46045;BME280;31781;54.094;13.428;2023-03-14T07:43:01;98729.00;;;11.45;72.62
46045;BME280;31781;54.094;13.428;2023-03-14T07:45:07;98739.38;;;11.48;73.15
46045;BME280;31781;54.094;13.428;2023-03-14T07:47:08;98720.84;;;11.50;72.46
46045;BME280;31781;54.094;13.428;2023-03-14T07:49:12;98729.59;;;11.52;72.40
46045;BME280;31781;54.094;13.428;2023-03-14T07:51:14;98720.59;;;11.57;72.65
46045;BME280;31781;54.094;13.428;2023-03-14T07:53:16;98722.81;;;11.60;72.32
46045;BME280;31781;54.094;13.428;2023-03-14T07:55:20;98725.56;;;11.65;72.14
46045;BME280;31781;54.094;13.428;2023-03-14T07:57:22;98720.41;;;11.68;71.28
46045;BME280;31781;54.094;13.428;2023-03-14T07:59:24;98719.63;;;11.73;71.38
46045;BME280;31781;54.094;13.428;2023-03-14T08:01:25;98719.94;;;11.77;71.29
46045;BME280;31781;54.094;13.428;2023-03-14T08:03:27;98721.84;;;11.81;70.80
46045;BME280;31781;54.094;13.428;2023-03-14T08:05:29;98736.66;;;12.00;70.45
46045;BME280;31781;54.094;13.428;2023-03-14T08:07:30;98730.69;;;12.13;70.78
46045;BME280;31781;54.094;13.428;2023-03-14T08:09:32;98732.59;;;12.13;69.97
46045;BME280;31781;54.094;13.428;2023-03-14T08:11:35;98736.16;;;12.24;69.27
46045;BME280;31781;54.094;13.428;2023-03-14T08:13:37;98725.03;;;12.40;68.87
46045;BME280;31781;54.094;13.428;2023-03-14T08:15:39;98720.13;;;12.47;68.19
46045;BME280;31781;54.094;13.428;2023-03-14T08:17:41;98729.44;;;12.51;67.25
46045;BME280;31781;54.094;13.428;2023-03-14T08:19:43;98722.34;;;12.55;67.50
46045;BME280;31781;54.094;13.428;2023-03-14T08:21:47;98733.25;;;12.60;67.01
46045;BME280;31781;54.094;13.428;2023-03-14T08:23:49;98723.16;;;12.66;66.23
46045;BME280;31781;54.094;13.428;2023-03-14T08:25:51;98736.56;;;12.78;65.91
46045;BME280;31781;54.094;13.428;2023-03-14T08:27:56;98730.81;;;12.84;66.76
46045;BME280;31781;54.094;13.428;2023-03-14T08:29:58;98730.81;;;12.89;65.61
46045;BME280;31781;54.094;13.428;2023-03-14T08:32:00;98730.28;;;12.92;65.69
46045;BME280;31781;54.094;13.428;2023-03-14T08:34:02;98734.09;;;12.96;65.33
46045;BME280;31781;54.094;13.428;2023-03-14T08:36:05;98725.06;;;13.01;64.30
46045;BME280;31781;54.094;13.428;2023-03-14T08:38:08;98729.47;;;13.12;65.04
46045;BME280;31781;54.094;13.428;2023-03-14T08:40:11;98718.25;;;13.24;64.80
46045;BME280;31781;54.094;13.428;2023-03-14T08:42:12;98723.44;;;13.35;62.90
46045;BME280;31781;54.094;13.428;2023-03-14T08:44:15;98698.28;;;13.48;63.82
46045;BME280;31781;54.094;13.428;2023-03-14T08:46:21;98702.88;;;13.63;62.17
46045;BME280;31781;54.094;13.428;2023-03-14T08:48:22;98711.03;;;13.78;61.51
46045;BME280;31781;54.094;13.428;2023-03-14T08:50:24;98711.50;;;13.90;61.23
46045;BME280;31781;54.094;13.428;2023-03-14T08:52:26;98707.34;;;14.03;60.51
46045;BME280;31781;54.094;13.428;2023-03-14T08:54:28;98708.09;;;14.19;60.12
46045;BME280;31781;54.094;13.428;2023-03-14T08:56:30;98697.91;;;14.29;59.62
46045;BME280;31781;54.094;13.428;2023-03-14T08:58:32;98714.81;;;14.41;58.47
46045;BME280;31781;54.094;13.428;2023-03-14T09:00:36;98712.31;;;14.50;58.89
46045;BME280;31781;54.094;13.428;2023-03-14T09:02:40;98716.63;;;14.61;59.11
46045;BME280;31781;54.094;13.428;2023-03-14T09:04:43;98722.00;;;14.71;57.30
46045;BME280;31781;54.094;13.428;2023-03-14T09:06:45;98719.72;;;14.83;57.16
46045;BME280;31781;54.094;13.428;2023-03-14T09:08:49;98730.03;;;14.96;56.42
46045;BME280;31781;54.094;13.428;2023-03-14T09:10:50;98718.19;;;15.06;56.12
46045;BME280;31781;54.094;13.428;2023-03-14T09:12:52;98725.22;;;15.12;56.23
46045;BME280;31781;54.094;13.428;2023-03-14T09:14:54;98726.50;;;15.25;55.63
46045;BME280;31781;54.094;13.428;2023-03-14T09:16:57;98729.38;;;15.38;54.85
46045;BME280;31781;54.094;13.428;2023-03-14T09:18:59;98719.69;;;15.46;55.08
46045;BME280;31781;54.094;13.428;2023-03-14T09:21:01;98722.38;;;15.56;55.11
46045;BME280;31781;54.094;13.428;2023-03-14T09:23:03;98712.81;;;15.53;54.50
46045;BME280;31781;54.094;13.428;2023-03-14T09:25:06;98731.31;;;15.67;54.07
46045;BME280;31781;54.094;13.428;2023-03-14T09:27:07;98734.38;;;15.60;53.73
46045;BME280;31781;54.094;13.428;2023-03-14T09:29:09;98736.31;;;15.59;53.40
46045;BME280;31781;54.094;13.428;2023-03-14T09:31:11;98734.34;;;15.65;53.49
46045;BME280;31781;54.094;13.428;2023-03-14T09:33:15;98724.72;;;15.68;53.35
46045;BME280;31781;54.094;13.428;2023-03-14T09:35:16;98724.13;;;15.71;53.83
46045;BME280;31781;54.094;13.428;2023-03-14T09:37:18;98732.09;;;15.67;53.57
46045;BME280;31781;54.094;13.428;2023-03-14T09:39:20;98740.09;;;15.64;53.58
46045;BME280;31781;54.094;13.428;2023-03-14T09:41:25;98729.72;;;15.61;53.01
46045;BME280;31781;54.094;13.428;2023-03-14T09:43:29;98732.84;;;15.78;53.32
46045;BME280;31781;54.094;13.428;2023-03-14T09:45:34;98732.84;;;15.78;53.64
46045;BME280;31781;54.094;13.428;2023-03-14T09:47:36;98728.09;;;15.83;53.56
46045;BME280;31781;54.094;13.428;2023-03-14T09:49:54;98728.69;;;15.80;52.89
46045;BME280;31781;54.094;13.428;2023-03-14T09:51:58;98728.69;;;15.80;52.93
46045;BME280;31781;54.094;13.428;2023-03-14T09:54:05;98733.84;;;15.82;52.87
46045;BME280;31781;54.094;13.428;2023-03-14T09:56:12;98742.41;;;15.80;52.97
46045;BME280;31781;54.094;13.428;2023-03-14T09:58:19;98736.38;;;15.78;52.42
46045;BME280;31781;54.094;13.428;2023-03-14T10:00:23;98759.47;;;15.72;51.56
46045;BME280;31781;54.094;13.428;2023-03-14T10:02:33;98741.75;;;15.65;51.25
46045;BME280;31781;54.094;13.428;2023-03-14T10:04:36;98736.59;;;15.58;51.02
46045;BME280;31781;54.094;13.428;2023-03-14T10:06:42;98741.53;;;15.56;52.39
46045;BME280;31781;54.094;13.428;2023-03-14T10:08:45;98753.41;;;15.46;51.63
46045;BME280;31781;54.094;13.428;2023-03-14T10:10:47;98745.19;;;15.46;52.23
46045;BME280;31781;54.094;13.428;2023-03-14T10:12:56;98748.44;;;15.48;53.11
46045;BME280;31781;54.094;13.428;2023-03-14T10:15:02;98747.13;;;15.46;52.98
46045;BME280;31781;54.094;13.428;2023-03-14T10:17:06;98746.84;;;15.47;52.53
46045;BME280;31781;54.094;13.428;2023-03-14T10:19:11;98744.38;;;15.46;52.06
46045;BME280;31781;54.094;13.428;2023-03-14T10:21:21;98748.75;;;15.47;52.65
46045;BME280;31781;54.094;13.428;2023-03-14T10:23:31;98750.41;;;15.48;53.48
46045;BME280;31781;54.094;13.428;2023-03-14T10:25:36;98753.69;;;15.50;52.36
46045;BME280;31781;54.094;13.428;2023-03-14T10:27:38;98756.31;;;15.60;52.48
46045;BME280;31781;54.094;13.428;2023-03-14T10:29:52;98751.84;;;15.69;53.48
46045;BME280;31781;54.094;13.428;2023-03-14T10:31:56;98753.28;;;15.85;52.18
46045;BME280;31781;54.094;13.428;2023-03-14T10:34:01;98740.75;;;16.03;51.97
46045;BME280;31781;54.094;13.428;2023-03-14T10:36:06;98735.59;;;16.20;52.10
46045;BME280;31781;54.094;13.428;2023-03-14T10:38:17;98737.03;;;16.36;50.00
46045;BME280;31781;54.094;13.428;2023-03-14T10:40:26;98738.69;;;16.56;51.47
46045;BME280;31781;54.094;13.428;2023-03-14T10:42:30;98731.84;;;16.53;48.83